Huron, South Dakota
Current Conditions -  °F | °C
As of 6:55 AM on Sunday 21 Dec 2014 (Local Time) from KHON Reporting Station
Haze Haze  
Wind Chill: 22°   Ceiling: 200
Heat Index: 30°   Visibility: 1mi
Dew Point: 30°   Wind: 8mph
Humidity: 100%   Direction: 180°S
Pressure: 29.75"   Gusts: NA
Location:  44.36°N, 98.21°W
Report Text: KHON 211255Z AUTO 18007KT 1SM BR OVC002 M01/M01 A2975 RMK AO2 SLP089 T10111011
Loading
Personal Weather Stations






























Interactive Weather Map New forecast layout! Learn more

10-Day Weather Forecast

Advertisements
Track Severe Weather on mobile